createdAt,value
2022-08-17T03:59:44.890Z,99793.41
2022-08-17T04:02:48.325Z,99798.50
2022-08-17T04:05:50.943Z,99802.91
2022-08-17T04:08:53.351Z,99806.75
2022-08-17T04:11:57.318Z,99804.25
2022-08-17T04:15:05.272Z,99808.25
2022-08-17T04:18:08.329Z,99807.75
2022-08-17T04:21:13.683Z,99815.63
2022-08-17T04:24:16.588Z,99821.97
2022-08-17T04:27:19.059Z,99822.16
2022-08-17T04:30:22.628Z,99820.88
2022-08-17T04:33:27.503Z,99818.56
2022-08-17T04:36:30.151Z,99820.94
2022-08-17T04:39:33.905Z,99821.75
2022-08-17T04:42:36.667Z,99821.59
2022-08-17T04:45:51.213Z,99819.94
2022-08-17T04:48:59.612Z,99827.44
2022-08-17T04:52:04.579Z,99833.97
2022-08-17T04:55:08.042Z,99828.97
2022-08-17T04:58:10.743Z,99833.81
2022-08-17T05:01:15.154Z,99839.31
2022-08-17T05:04:35.209Z,99848.50
2022-08-17T05:07:38.708Z,99853.34
2022-08-17T05:10:45.448Z,99849.66
2022-08-17T05:13:50.306Z,99852.50
2022-08-17T05:16:52.901Z,99850.44
2022-08-17T05:19:55.534Z,99848.44
2022-08-17T05:23:01.646Z,99848.72
2022-08-17T05:26:04.265Z,99853.91
2022-08-17T05:29:09.389Z,99854.53
2022-08-17T05:32:47.896Z,99848.41
2022-08-17T05:35:38.289Z,99842.06
2022-08-17T05:38:41.317Z,99846.84
2022-08-17T05:41:48.127Z,99844.09
2022-08-17T05:44:50.774Z,99846.34
2022-08-17T05:47:53.185Z,99851.13
2022-08-17T05:51:07.558Z,99843.75
2022-08-17T05:54:24.448Z,99851.19
2022-08-17T05:57:56.066Z,99849.91
2022-08-17T06:01:47.614Z,99846.44
2022-08-17T06:05:15.538Z,99859.44
2022-08-17T06:08:25.466Z,99850.44
2022-08-17T06:11:53.318Z,99856.66
2022-08-17T06:15:24.840Z,99858.94
2022-08-17T06:18:34.874Z,99862.69
2022-08-17T06:21:41.345Z,99863.41
2022-08-17T06:25:10.145Z,99866.09
2022-08-17T06:28:18.759Z,99878.03
2022-08-17T06:31:27.416Z,99864.16
2022-08-17T06:34:31.794Z,99876.00
2022-08-17T06:37:43.289Z,99872.94
2022-08-17T06:41:23.605Z,99876.41
2022-08-17T06:44:51.498Z,99880.16
2022-08-17T06:48:17.610Z,99876.53
2022-08-17T06:51:37.750Z,99884.16
2022-08-17T06:55:06.260Z,99877.72
2022-08-17T06:58:16.141Z,99880.78
2022-08-17T07:01:25.084Z,99879.06
2022-08-17T07:04:31.370Z,99875.72
2022-08-17T07:07:56.916Z,99873.66
2022-08-17T07:11:04.939Z,99879.91
2022-08-17T07:14:36.607Z,99874.28
2022-08-17T07:17:47.528Z,99875.94
2022-08-17T07:20:56.514Z,99882.59
2022-08-17T07:24:30.046Z,99881.34
2022-08-17T07:27:45.231Z,99874.28
2022-08-17T07:30:54.367Z,99876.75
2022-08-17T07:34:14.684Z,99856.22
2022-08-17T07:37:19.267Z,99873.06
2022-08-17T07:40:35.937Z,99877.81
2022-08-17T07:43:41.337Z,99871.81
2022-08-17T07:47:11.266Z,99869.31
2022-08-17T07:50:27.708Z,99875.69
2022-08-17T07:53:31.932Z,99871.16
2022-08-17T07:56:48.644Z,99874.44
2022-08-17T08:00:01.470Z,99877.97
2022-08-17T08:03:15.275Z,99884.19
2022-08-17T08:06:23.077Z,99879.34
2022-08-17T08:09:32.532Z,99882.91
2022-08-17T08:12:36.761Z,99876.84
2022-08-17T08:15:40.704Z,99876.97
2022-08-17T08:18:55.327Z,99882.56
2022-08-17T08:22:11.635Z,99881.44
2022-08-17T08:25:25.400Z,99880.00
2022-08-17T08:28:45.083Z,99880.84
2022-08-17T08:32:03.462Z,99877.81
2022-08-17T08:35:22.613Z,99879.13
2022-08-17T08:38:28.365Z,99883.94
2022-08-17T08:41:40.537Z,99883.12
2022-08-17T08:45:01.381Z,99881.94
2022-08-17T08:48:53.390Z,99881.78
2022-08-17T08:52:02.846Z,99870.84
2022-08-17T08:55:11.277Z,99872.75
2022-08-17T08:58:41.821Z,99854.78
2022-08-17T09:01:50.711Z,99863.22
2022-08-17T09:05:16.511Z,99860.38
2022-08-17T09:08:45.522Z,99864.31
2022-08-17T09:12:09.168Z,99861.78
2022-08-17T09:15:32.116Z,99860.66
2022-08-17T09:19:01.184Z,99866.22
2022-08-17T09:22:33.357Z,99859.09
2022-08-17T09:25:49.770Z,99859.28
2022-08-17T09:29:01.456Z,99860.91
2022-08-17T09:32:21.986Z,99861.06
2022-08-17T09:35:36.734Z,99853.75
2022-08-17T09:39:01.226Z,99858.84
2022-08-17T09:42:14.673Z,99852.56
2022-08-17T09:45:26.817Z,99856.41
2022-08-17T09:48:45.684Z,99854.03
2022-08-17T09:51:55.525Z,99842.06
2022-08-17T09:55:00.038Z,99842.66
2022-08-17T09:58:22.885Z,99835.81
2022-08-17T10:01:43.196Z,99835.03
2022-08-17T10:05:05.244Z,99839.97
2022-08-17T10:08:17.951Z,99849.81
2022-08-17T10:12:00.903Z,99854.03
2022-08-17T10:15:22.536Z,99845.31
2022-08-17T10:18:37.734Z,99845.06
2022-08-17T10:22:14.513Z,99844.06
2022-08-17T10:26:00.036Z,99841.66
2022-08-17T10:29:13.383Z,99851.59
2022-08-17T10:32:38.643Z,99846.38
2022-08-17T10:35:46.881Z,99841.97
2022-08-17T10:39:04.463Z,99840.69
2022-08-17T10:42:32.571Z,99841.50
2022-08-17T10:45:48.454Z,99834.91
2022-08-17T10:49:16.757Z,99835.31
2022-08-17T10:52:19.260Z,99840.09
2022-08-17T10:55:22.029Z,99841.63
2022-08-17T10:58:28.527Z,99830.00
2022-08-17T11:01:42.066Z,99828.06
2022-08-17T11:04:58.514Z,99832.31
2022-08-17T11:08:38.928Z,99828.75
2022-08-17T11:11:49.907Z,99830.00
2022-08-17T11:15:17.355Z,99834.66
2022-08-17T11:19:09.859Z,99825.41
2022-08-17T11:22:49.673Z,99820.78
2022-08-17T11:25:55.560Z,99814.25
2022-08-17T11:29:03.527Z,99805.09
2022-08-17T11:32:47.148Z,99803.44
2022-08-17T11:36:04.156Z,99820.81
2022-08-17T11:39:13.156Z,99799.34
2022-08-17T11:42:26.660Z,99798.28
2022-08-17T11:45:49.055Z,99791.03
2022-08-17T11:49:11.303Z,99798.91
2022-08-17T11:52:38.962Z,99800.72
2022-08-17T11:55:44.829Z,99802.00
2022-08-17T11:58:48.528Z,99800.50
2022-08-17T12:01:57.040Z,99798.00
2022-08-17T12:05:12.417Z,99795.28
2022-08-17T12:08:23.025Z,99793.38
2022-08-17T12:11:58.664Z,99786.81
2022-08-17T12:15:13.884Z,99786.69
2022-08-17T12:18:24.641Z,99784.12
2022-08-17T12:21:36.328Z,99770.25
2022-08-17T12:24:59.628Z,99775.81
2022-08-17T12:28:05.184Z,99764.94
2022-08-17T12:31:21.780Z,99765.72
2022-08-17T12:34:35.950Z,99768.88
2022-08-17T12:37:47.073Z,99770.53
2022-08-17T12:40:55.641Z,99759.47
2022-08-17T12:44:25.187Z,99750.25
2022-08-17T12:47:29.939Z,99744.13
2022-08-17T12:50:41.547Z,99753.22
2022-08-17T12:53:53.011Z,99752.28
2022-08-17T12:57:05.459Z,99749.87
2022-08-17T13:00:15.764Z,99750.25
2022-08-17T13:03:23.439Z,99744.44
2022-08-17T13:06:30.105Z,99739.00
2022-08-17T13:09:35.888Z,99749.87
2022-08-17T13:12:42.953Z,99749.00
2022-08-17T13:15:57.513Z,99739.06
2022-08-17T13:19:15.213Z,99748.91
2022-08-17T13:22:26.208Z,99740.81
2022-08-17T13:25:29.686Z,99740.94
2022-08-17T13:28:36.112Z,99738.09
2022-08-17T13:31:44.085Z,99742.34
2022-08-17T13:35:15.295Z,99732.78
2022-08-17T13:38:45.602Z,99735.75
2022-08-17T13:41:52.242Z,99729.28
2022-08-17T13:44:54.657Z,99731.25
2022-08-17T13:48:16.220Z,99733.50
2022-08-17T13:51:26.579Z,99726.25
2022-08-17T13:54:34.213Z,99732.34
2022-08-17T13:57:36.915Z,99726.50
2022-08-17T14:00:40.754Z,99725.38
2022-08-17T14:03:44.345Z,99729.53
2022-08-17T14:06:57.934Z,99728.06
2022-08-17T14:10:06.118Z,99727.50
2022-08-17T14:13:08.589Z,99721.06
2022-08-17T14:16:11.397Z,99733.75
2022-08-17T14:19:14.852Z,99711.97
2022-08-17T14:22:30.760Z,99723.38
2022-08-17T14:25:33.258Z,99716.09
2022-08-17T14:28:38.635Z,99714.44
2022-08-17T14:31:57.642Z,99718.06
2022-08-17T14:35:01.469Z,99714.09
2022-08-17T14:38:04.092Z,99710.03
2022-08-17T14:41:06.763Z,99711.13
2022-08-17T14:44:12.568Z,99719.28
2022-08-17T14:47:15.831Z,99712.88
2022-08-17T14:50:21.079Z,99718.19
2022-08-17T14:53:25.013Z,99720.94
2022-08-17T14:56:27.485Z,99712.09
2022-08-17T14:59:35.420Z,99710.16
2022-08-17T15:02:48.248Z,99715.16
2022-08-17T15:05:50.964Z,99707.88
